sensor_id;sensor_type;location;lat;lon;timestamp;P1;durP1;ratioP1;P2;durP2;ratioP2
55172;SDS011;41061;52.822;6.860;2023-07-30T00:01:57;8.68;;;3.50;;
55172;SDS011;41061;52.822;6.860;2023-07-30T00:04:24;10.73;;;3.80;;
55172;SDS011;41061;52.822;6.860;2023-07-30T00:06:50;15.35;;;3.90;;
55172;SDS011;41061;52.822;6.860;2023-07-30T00:09:16;11.80;;;3.25;;
55172;SDS011;41061;52.822;6.860;2023-07-30T00:11:42;8.38;;;3.45;;
55172;SDS011;41061;52.822;6.860;2023-07-30T00:14:09;12.60;;;3.00;;
55172;SDS011;41061;52.822;6.860;2023-07-30T00:16:35;11.80;;;3.53;;
55172;SDS011;41061;52.822;6.860;2023-07-30T00:19:01;7.07;;;3.35;;
55172;SDS011;41061;52.822;6.860;2023-07-30T00:21:27;13.32;;;3.42;;
55172;SDS011;41061;52.822;6.860;2023-07-30T00:23:54;10.88;;;3.55;;
55172;SDS011;41061;52.822;6.860;2023-07-30T00:26:20;7.35;;;3.47;;
55172;SDS011;41061;52.822;6.860;2023-07-30T00:28:47;11.57;;;3.95;;
55172;SDS011;41061;52.822;6.860;2023-07-30T00:31:13;10.23;;;3.40;;
55172;SDS011;41061;52.822;6.860;2023-07-30T00:33:39;17.08;;;4.15;;
55172;SDS011;41061;52.822;6.860;2023-07-30T00:36:05;11.82;;;3.40;;
55172;SDS011;41061;52.822;6.860;2023-07-30T00:38:31;10.20;;;3.78;;
55172;SDS011;41061;52.822;6.860;2023-07-30T00:40:57;10.48;;;3.80;;
55172;SDS011;41061;52.822;6.860;2023-07-30T00:43:23;12.15;;;3.28;;
55172;SDS011;41061;52.822;6.860;2023-07-30T00:45:49;15.75;;;4.00;;
55172;SDS011;41061;52.822;6.860;2023-07-30T00:48:15;13.82;;;4.03;;
55172;SDS011;41061;52.822;6.860;2023-07-30T00:50:41;11.68;;;3.65;;
55172;SDS011;41061;52.822;6.860;2023-07-30T00:53:09;9.25;;;3.38;;
55172;SDS011;41061;52.822;6.860;2023-07-30T00:55:36;7.88;;;3.67;;
55172;SDS011;41061;52.822;6.860;2023-07-30T00:58:02;11.40;;;4.25;;
55172;SDS011;41061;52.822;6.860;2023-07-30T01:00:29;10.18;;;3.72;;
55172;SDS011;41061;52.822;6.860;2023-07-30T01:02:56;11.38;;;3.47;;
55172;SDS011;41061;52.822;6.860;2023-07-30T01:05:23;9.65;;;3.33;;
55172;SDS011;41061;52.822;6.860;2023-07-30T01:07:49;6.90;;;2.95;;
55172;SDS011;41061;52.822;6.860;2023-07-30T01:10:15;10.00;;;3.70;;
55172;SDS011;41061;52.822;6.860;2023-07-30T01:12:42;13.63;;;3.33;;
55172;SDS011;41061;52.822;6.860;2023-07-30T01:15:08;9.70;;;3.78;;
55172;SDS011;41061;52.822;6.860;2023-07-30T01:17:35;10.82;;;3.28;;
55172;SDS011;41061;52.822;6.860;2023-07-30T01:20:01;10.68;;;3.95;;
55172;SDS011;41061;52.822;6.860;2023-07-30T01:22:27;7.53;;;3.20;;
55172;SDS011;41061;52.822;6.860;2023-07-30T01:24:54;12.88;;;3.35;;
55172;SDS011;41061;52.822;6.860;2023-07-30T01:27:24;9.27;;;3.63;;
55172;SDS011;41061;52.822;6.860;2023-07-30T01:29:52;12.32;;;3.65;;
55172;SDS011;41061;52.822;6.860;2023-07-30T01:32:25;10.80;;;3.28;;
55172;SDS011;41061;52.822;6.860;2023-07-30T01:34:52;12.25;;;3.08;;
55172;SDS011;41061;52.822;6.860;2023-07-30T01:37:18;10.25;;;3.25;;
55172;SDS011;41061;52.822;6.860;2023-07-30T01:39:45;11.30;;;3.33;;
55172;SDS011;41061;52.822;6.860;2023-07-30T01:42:12;6.47;;;2.72;;
55172;SDS011;41061;52.822;6.860;2023-07-30T01:44:38;14.10;;;2.92;;
55172;SDS011;41061;52.822;6.860;2023-07-30T01:47:04;7.68;;;2.80;;
55172;SDS011;41061;52.822;6.860;2023-07-30T01:49:30;7.93;;;2.72;;
55172;SDS011;41061;52.822;6.860;2023-07-30T01:51:56;9.40;;;3.15;;
55172;SDS011;41061;52.822;6.860;2023-07-30T01:54:22;10.63;;;3.30;;
55172;SDS011;41061;52.822;6.860;2023-07-30T01:56:48;10.65;;;3.13;;
55172;SDS011;41061;52.822;6.860;2023-07-30T01:59:14;8.23;;;3.38;;
55172;SDS011;41061;52.822;6.860;2023-07-30T02:01:41;12.50;;;3.35;;
55172;SDS011;41061;52.822;6.860;2023-07-30T02:04:07;11.43;;;3.17;;
55172;SDS011;41061;52.822;6.860;2023-07-30T02:06:33;11.98;;;3.55;;
55172;SDS011;41061;52.822;6.860;2023-07-30T02:08:59;13.10;;;2.80;;
55172;SDS011;41061;52.822;6.860;2023-07-30T02:11:25;12.63;;;3.00;;
55172;SDS011;41061;52.822;6.860;2023-07-30T02:13:51;14.50;;;2.80;;
55172;SDS011;41061;52.822;6.860;2023-07-30T02:16:17;8.88;;;2.67;;
55172;SDS011;41061;52.822;6.860;2023-07-30T02:18:44;12.63;;;3.13;;
55172;SDS011;41061;52.822;6.860;2023-07-30T02:21:10;13.27;;;4.45;;
55172;SDS011;41061;52.822;6.860;2023-07-30T02:23:36;8.65;;;2.80;;
55172;SDS011;41061;52.822;6.860;2023-07-30T02:26:02;9.70;;;2.50;;
55172;SDS011;41061;52.822;6.860;2023-07-30T02:28:28;9.13;;;2.75;;
55172;SDS011;41061;52.822;6.860;2023-07-30T02:30:54;11.90;;;2.78;;
55172;SDS011;41061;52.822;6.860;2023-07-30T02:33:20;11.57;;;2.65;;
55172;SDS011;41061;52.822;6.860;2023-07-30T02:35:46;9.85;;;2.70;;
55172;SDS011;41061;52.822;6.860;2023-07-30T02:38:12;10.23;;;3.10;;
55172;SDS011;41061;52.822;6.860;2023-07-30T02:40:38;13.25;;;2.80;;
55172;SDS011;41061;52.822;6.860;2023-07-30T02:43:04;9.98;;;2.95;;
55172;SDS011;41061;52.822;6.860;2023-07-30T02:45:30;8.70;;;2.40;;
55172;SDS011;41061;52.822;6.860;2023-07-30T02:47:56;12.93;;;3.15;;
55172;SDS011;41061;52.822;6.860;2023-07-30T02:50:22;10.25;;;2.63;;
55172;SDS011;41061;52.822;6.860;2023-07-30T02:52:48;17.58;;;3.15;;
55172;SDS011;41061;52.822;6.860;2023-07-30T02:55:15;9.60;;;2.67;;
55172;SDS011;41061;52.822;6.860;2023-07-30T02:57:41;7.72;;;2.72;;
55172;SDS011;41061;52.822;6.860;2023-07-30T03:00:07;7.57;;;2.30;;
55172;SDS011;41061;52.822;6.860;2023-07-30T03:02:34;8.45;;;2.78;;
55172;SDS011;41061;52.822;6.860;2023-07-30T03:05:00;10.52;;;2.88;;
55172;SDS011;41061;52.822;6.860;2023-07-30T03:07:26;8.70;;;2.40;;
55172;SDS011;41061;52.822;6.860;2023-07-30T03:09:52;7.63;;;2.28;;
55172;SDS011;41061;52.822;6.860;2023-07-30T03:12:18;10.38;;;2.45;;
55172;SDS011;41061;52.822;6.860;2023-07-30T03:14:44;9.98;;;2.60;;
55172;SDS011;41061;52.822;6.860;2023-07-30T03:17:10;8.45;;;3.17;;
55172;SDS011;41061;52.822;6.860;2023-07-30T03:19:36;8.32;;;2.50;;
55172;SDS011;41061;52.822;6.860;2023-07-30T03:22:02;7.63;;;2.22;;
55172;SDS011;41061;52.822;6.860;2023-07-30T03:24:29;10.35;;;2.30;;
55172;SDS011;41061;52.822;6.860;2023-07-30T03:26:55;11.63;;;3.22;;
55172;SDS011;41061;52.822;6.860;2023-07-30T03:29:21;8.65;;;2.33;;
55172;SDS011;41061;52.822;6.860;2023-07-30T03:31:47;8.68;;;2.75;;
55172;SDS011;41061;52.822;6.860;2023-07-30T03:34:13;10.95;;;2.50;;
55172;SDS011;41061;52.822;6.860;2023-07-30T03:36:39;8.65;;;2.65;;
55172;SDS011;41061;52.822;6.860;2023-07-30T03:39:05;13.10;;;3.15;;
55172;SDS011;41061;52.822;6.860;2023-07-30T03:41:31;11.40;;;2.75;;
55172;SDS011;41061;52.822;6.860;2023-07-30T03:43:57;8.13;;;2.30;;
55172;SDS011;41061;52.822;6.860;2023-07-30T03:46:24;11.18;;;2.67;;
55172;SDS011;41061;52.822;6.860;2023-07-30T03:48:50;8.32;;;2.85;;
55172;SDS011;41061;52.822;6.860;2023-07-30T03:51:16;13.45;;;2.67;;
55172;SDS011;41061;52.822;6.860;2023-07-30T03:53:42;8.05;;;3.00;;
55172;SDS011;41061;52.822;6.860;2023-07-30T03:56:08;11.85;;;3.58;;
55172;SDS011;41061;52.822;6.860;2023-07-30T03:58:34;7.82;;;3.17;;
55172;SDS011;41061;52.822;6.860;2023-07-30T04:01:01;9.38;;;3.17;;
55172;SDS011;41061;52.822;6.860;2023-07-30T04:03:27;14.52;;;5.10;;
55172;SDS011;41061;52.822;6.860;2023-07-30T04:05:53;9.32;;;3.17;;
55172;SDS011;41061;52.822;6.860;2023-07-30T04:08:19;11.10;;;3.65;;
55172;SDS011;41061;52.822;6.860;2023-07-30T04:10:46;10.23;;;2.85;;
55172;SDS011;41061;52.822;6.860;2023-07-30T04:13:12;10.95;;;3.08;;
55172;SDS011;41061;52.822;6.860;2023-07-30T04:15:38;9.80;;;3.17;;
55172;SDS011;41061;52.822;6.860;2023-07-30T04:18:04;9.40;;;3.83;;
55172;SDS011;41061;52.822;6.860;2023-07-30T04:20:30;14.05;;;3.45;;
55172;SDS011;41061;52.822;6.860;2023-07-30T04:22:56;12.25;;;3.58;;
55172;SDS011;41061;52.822;6.860;2023-07-30T04:25:22;15.55;;;3.38;;
55172;SDS011;41061;52.822;6.860;2023-07-30T04:27:48;9.35;;;3.28;;
55172;SDS011;41061;52.822;6.860;2023-07-30T04:30:14;8.88;;;3.03;;
55172;SDS011;41061;52.822;6.860;2023-07-30T04:32:41;8.70;;;3.60;;
55172;SDS011;41061;52.822;6.860;2023-07-30T04:35:07;12.27;;;3.30;;
55172;SDS011;41061;52.822;6.860;2023-07-30T04:37:33;16.73;;;3.70;;
55172;SDS011;41061;52.822;6.860;2023-07-30T04:39:59;8.90;;;3.10;;
55172;SDS011;41061;52.822;6.860;2023-07-30T04:42:25;7.88;;;3.13;;
55172;SDS011;41061;52.822;6.860;2023-07-30T04:44:52;8.38;;;3.20;;
55172;SDS011;41061;52.822;6.860;2023-07-30T04:47:18;10.77;;;3.65;;
55172;SDS011;41061;52.822;6.860;2023-07-30T04:49:44;7.13;;;2.85;;
55172;SDS011;41061;52.822;6.860;2023-07-30T04:52:10;11.38;;;3.42;;
55172;SDS011;41061;52.822;6.860;2023-07-30T04:54:36;12.75;;;3.58;;
55172;SDS011;41061;52.822;6.860;2023-07-30T04:57:02;8.32;;;3.13;;
55172;SDS011;41061;52.822;6.860;2023-07-30T04:59:29;9.10;;;3.17;;
55172;SDS011;41061;52.822;6.860;2023-07-30T05:01:55;12.35;;;3.45;;
55172;SDS011;41061;52.822;6.860;2023-07-30T05:04:21;8.15;;;3.72;;
55172;SDS011;41061;52.822;6.860;2023-07-30T05:06:47;10.80;;;3.28;;
55172;SDS011;41061;52.822;6.860;2023-07-30T05:09:13;14.55;;;3.80;;
55172;SDS011;41061;52.822;6.860;2023-07-30T05:11:39;11.38;;;3.47;;
55172;SDS011;41061;52.822;6.860;2023-07-30T05:14:05;14.98;;;3.92;;
55172;SDS011;41061;52.822;6.860;2023-07-30T05:16:31;9.77;;;3.20;;
55172;SDS011;41061;52.822;6.860;2023-07-30T05:18:57;11.25;;;3.55;;
55172;SDS011;41061;52.822;6.860;2023-07-30T05:21:23;8.30;;;3.42;;
55172;SDS011;41061;52.822;6.860;2023-07-30T05:23:50;13.00;;;4.07;;
55172;SDS011;41061;52.822;6.860;2023-07-30T05:26:16;9.57;;;3.58;;
55172;SDS011;41061;52.822;6.860;2023-07-30T05:28:42;13.32;;;3.30;;
55172;SDS011;41061;52.822;6.860;2023-07-30T05:31:08;13.32;;;3.42;;
55172;SDS011;41061;52.822;6.860;2023-07-30T05:33:34;14.60;;;3.80;;
55172;SDS011;41061;52.822;6.860;2023-07-30T05:36:00;16.48;;;5.97;;
55172;SDS011;41061;52.822;6.860;2023-07-30T05:38:26;17.73;;;4.50;;
55172;SDS011;41061;52.822;6.860;2023-07-30T05:40:52;10.75;;;3.33;;
55172;SDS011;41061;52.822;6.860;2023-07-30T05:43:18;16.85;;;4.20;;
55172;SDS011;41061;52.822;6.860;2023-07-30T05:45:44;11.93;;;3.58;;
55172;SDS011;41061;52.822;6.860;2023-07-30T05:48:10;13.00;;;4.20;;
55172;SDS011;41061;52.822;6.860;2023-07-30T05:50:36;15.88;;;4.50;;
55172;SDS011;41061;52.822;6.860;2023-07-30T05:53:03;13.15;;;3.58;;
55172;SDS011;41061;52.822;6.860;2023-07-30T05:55:29;12.02;;;3.40;;
55172;SDS011;41061;52.822;6.860;2023-07-30T05:57:55;15.43;;;3.70;;
55172;SDS011;41061;52.822;6.860;2023-07-30T06:00:21;13.15;;;3.78;;
55172;SDS011;41061;52.822;6.860;2023-07-30T06:02:47;19.42;;;4.07;;
55172;SDS011;41061;52.822;6.860;2023-07-30T06:05:13;11.90;;;3.95;;
55172;SDS011;41061;52.822;6.860;2023-07-30T06:07:39;10.38;;;3.60;;
55172;SDS011;41061;52.822;6.860;2023-07-30T06:10:05;13.90;;;3.92;;
55172;SDS011;41061;52.822;6.860;2023-07-30T06:12:32;13.35;;;4.00;;
55172;SDS011;41061;52.822;6.860;2023-07-30T06:14:58;12.82;;;4.05;;
55172;SDS011;41061;52.822;6.860;2023-07-30T06:17:24;20.00;;;4.63;;
55172;SDS011;41061;52.822;6.860;2023-07-30T06:19:50;14.60;;;3.42;;
55172;SDS011;41061;52.822;6.860;2023-07-30T06:22:16;11.95;;;3.90;;
55172;SDS011;41061;52.822;6.860;2023-07-30T06:24:42;17.02;;;3.83;;
55172;SDS011;41061;52.822;6.860;2023-07-30T06:27:08;20.15;;;4.20;;
55172;SDS011;41061;52.822;6.860;2023-07-30T06:29:35;15.43;;;4.03;;
55172;SDS011;41061;52.822;6.860;2023-07-30T06:32:01;10.75;;;4.57;;
55172;SDS011;41061;52.822;6.860;2023-07-30T06:34:27;16.77;;;4.65;;
55172;SDS011;41061;52.822;6.860;2023-07-30T06:36:54;12.57;;;3.80;;
55172;SDS011;41061;52.822;6.860;2023-07-30T06:39:20;10.68;;;3.65;;
55172;SDS011;41061;52.822;6.860;2023-07-30T06:41:46;16.40;;;3.90;;
55172;SDS011;41061;52.822;6.860;2023-07-30T06:44:12;10.10;;;3.33;;
55172;SDS011;41061;52.822;6.860;2023-07-30T06:46:38;14.70;;;3.92;;
55172;SDS011;41061;52.822;6.860;2023-07-30T06:49:05;13.70;;;3.50;;
55172;SDS011;41061;52.822;6.860;2023-07-30T06:51:31;16.80;;;4.07;;
55172;SDS011;41061;52.822;6.860;2023-07-30T06:53:57;19.35;;;3.80;;
55172;SDS011;41061;52.822;6.860;2023-07-30T06:56:23;16.42;;;3.80;;
55172;SDS011;41061;52.822;6.860;2023-07-30T06:58:49;17.55;;;4.18;;
55172;SDS011;41061;52.822;6.860;2023-07-30T07:01:15;18.20;;;4.32;;
55172;SDS011;41061;52.822;6.860;2023-07-30T07:03:41;16.80;;;3.92;;
55172;SDS011;41061;52.822;6.860;2023-07-30T07:06:07;13.15;;;3.92;;
55172;SDS011;41061;52.822;6.860;2023-07-30T07:08:33;18.52;;;4.72;;
55172;SDS011;41061;52.822;6.860;2023-07-30T07:10:59;20.35;;;4.70;;
55172;SDS011;41061;52.822;6.860;2023-07-30T07:13:25;15.45;;;4.10;;
55172;SDS011;41061;52.822;6.860;2023-07-30T07:15:52;18.00;;;5.18;;
55172;SDS011;41061;52.822;6.860;2023-07-30T07:18:18;15.32;;;3.72;;
55172;SDS011;41061;52.822;6.860;2023-07-30T07:20:44;14.98;;;3.78;;
55172;SDS011;41061;52.822;6.860;2023-07-30T07:23:10;17.17;;;4.20;;
55172;SDS011;41061;52.822;6.860;2023-07-30T07:25:36;18.10;;;5.13;;
55172;SDS011;41061;52.822;6.860;2023-07-30T07:28:02;13.55;;;4.13;;
55172;SDS011;41061;52.822;6.860;2023-07-30T07:30:29;12.52;;;3.80;;
55172;SDS011;41061;52.822;6.860;2023-07-30T07:32:55;13.60;;;3.50;;
55172;SDS011;41061;52.822;6.860;2023-07-30T07:35:21;13.40;;;3.10;;
55172;SDS011;41061;52.822;6.860;2023-07-30T07:37:47;15.15;;;4.07;;
55172;SDS011;41061;52.822;6.860;2023-07-30T07:40:14;14.02;;;3.58;;
55172;SDS011;41061;52.822;6.860;2023-07-30T07:42:40;17.33;;;3.72;;
55172;SDS011;41061;52.822;6.860;2023-07-30T07:45:06;13.50;;;4.45;;
55172;SDS011;41061;52.822;6.860;2023-07-30T07:47:33;13.77;;;4.65;;
55172;SDS011;41061;52.822;6.860;2023-07-30T07:49:59;15.32;;;3.90;;
55172;SDS011;41061;52.822;6.860;2023-07-30T07:52:25;20.10;;;4.47;;
55172;SDS011;41061;52.822;6.860;2023-07-30T07:54:51;19.75;;;4.68;;
55172;SDS011;41061;52.822;6.860;2023-07-30T07:57:17;12.20;;;3.60;;
55172;SDS011;41061;52.822;6.860;2023-07-30T07:59:43;16.42;;;3.97;;
55172;SDS011;41061;52.822;6.860;2023-07-30T08:02:13;14.45;;;5.10;;
55172;SDS011;41061;52.822;6.860;2023-07-30T08:04:40;17.48;;;3.95;;
55172;SDS011;41061;52.822;6.860;2023-07-30T08:07:06;12.57;;;2.83;;
55172;SDS011;41061;52.822;6.860;2023-07-30T08:09:32;13.73;;;4.43;;
55172;SDS011;41061;52.822;6.860;2023-07-30T08:11:59;15.90;;;3.85;;
55172;SDS011;41061;52.822;6.860;2023-07-30T08:14:26;17.70;;;3.50;;
55172;SDS011;41061;52.822;6.860;2023-07-30T08:16:52;14.15;;;3.67;;
55172;SDS011;41061;52.822;6.860;2023-07-30T08:19:18;12.55;;;4.05;;
55172;SDS011;41061;52.822;6.860;2023-07-30T08:21:44;17.85;;;3.88;;
55172;SDS011;41061;52.822;6.860;2023-07-30T08:24:10;13.55;;;3.70;;
55172;SDS011;41061;52.822;6.860;2023-07-30T08:26:36;14.98;;;4.15;;
55172;SDS011;41061;52.822;6.860;2023-07-30T08:29:02;12.77;;;3.17;;
55172;SDS011;41061;52.822;6.860;2023-07-30T08:31:28;11.15;;;3.00;;
55172;SDS011;41061;52.822;6.860;2023-07-30T08:33:54;15.65;;;4.05;;
55172;SDS011;41061;52.822;6.860;2023-07-30T08:36:21;9.85;;;2.80;;
55172;SDS011;41061;52.822;6.860;2023-07-30T08:38:47;13.43;;;3.08;;
55172;SDS011;41061;52.822;6.860;2023-07-30T08:41:13;10.45;;;2.55;;
55172;SDS011;41061;52.822;6.860;2023-07-30T08:43:39;14.82;;;2.75;;
55172;SDS011;41061;52.822;6.860;2023-07-30T08:46:05;17.30;;;3.45;;
55172;SDS011;41061;52.822;6.860;2023-07-30T08:48:31;12.52;;;2.38;;
55172;SDS011;41061;52.822;6.860;2023-07-30T08:50:57;12.02;;;3.22;;
55172;SDS011;41061;52.822;6.860;2023-07-30T08:53:24;10.43;;;2.65;;
55172;SDS011;41061;52.822;6.860;2023-07-30T08:55:52;11.93;;;2.50;;
55172;SDS011;41061;52.822;6.860;2023-07-30T08:58:18;10.65;;;2.53;;
55172;SDS011;41061;52.822;6.860;2023-07-30T09:00:44;14.20;;;2.80;;
55172;SDS011;41061;52.822;6.860;2023-07-30T09:03:11;14.88;;;2.90;;
55172;SDS011;41061;52.822;6.860;2023-07-30T09:05:38;10.68;;;2.45;;
55172;SDS011;41061;52.822;6.860;2023-07-30T09:08:04;9.30;;;2.42;;
55172;SDS011;41061;52.822;6.860;2023-07-30T09:10:31;10.57;;;2.38;;
55172;SDS011;41061;52.822;6.860;2023-07-30T09:12:57;11.85;;;2.63;;
55172;SDS011;41061;52.822;6.860;2023-07-30T09:15:31;12.63;;;3.08;;
55172;SDS011;41061;52.822;6.860;2023-07-30T09:17:57;9.45;;;2.75;;
55172;SDS011;41061;52.822;6.860;2023-07-30T09:20:23;18.58;;;3.60;;
55172;SDS011;41061;52.822;6.860;2023-07-30T09:22:50;15.57;;;3.13;;
55172;SDS011;41061;52.822;6.860;2023-07-30T09:25:18;15.43;;;3.20;;
55172;SDS011;41061;52.822;6.860;2023-07-30T09:27:49;9.98;;;3.22;;
55172;SDS011;41061;52.822;6.860;2023-07-30T09:30:16;15.57;;;3.33;;
55172;SDS011;41061;52.822;6.860;2023-07-30T09:32:50;12.95;;;3.08;;
55172;SDS011;41061;52.822;6.860;2023-07-30T09:35:17;12.70;;;3.08;;
55172;SDS011;41061;52.822;6.860;2023-07-30T09:37:43;12.25;;;2.85;;
55172;SDS011;41061;52.822;6.860;2023-07-30T09:40:10;11.98;;;2.50;;
55172;SDS011;41061;52.822;6.860;2023-07-30T09:42:43;14.00;;;3.85;;
55172;SDS011;41061;52.822;6.860;2023-07-30T09:45:16;11.65;;;3.45;;
55172;SDS011;41061;52.822;6.860;2023-07-30T09:47:47;8.65;;;2.85;;
55172;SDS011;41061;52.822;6.860;2023-07-30T09:50:13;11.68;;;2.75;;
55172;SDS011;41061;52.822;6.860;2023-07-30T09:52:40;11.73;;;2.60;;
55172;SDS011;41061;52.822;6.860;2023-07-30T09:55:07;7.75;;;2.38;;
55172;SDS011;41061;52.822;6.860;2023-07-30T09:57:33;9.98;;;2.42;;
55172;SDS011;41061;52.822;6.860;2023-07-30T10:00:00;10.55;;;2.30;;
55172;SDS011;41061;52.822;6.860;2023-07-30T10:02:27;10.15;;;2.13;;
55172;SDS011;41061;52.822;6.860;2023-07-30T10:04:56;14.23;;;2.40;;
55172;SDS011;41061;52.822;6.860;2023-07-30T10:07:23;7.88;;;2.15;;
55172;SDS011;41061;52.822;6.860;2023-07-30T10:09:51;12.85;;;2.60;;
55172;SDS011;41061;52.822;6.860;2023-07-30T10:12:20;7.97;;;1.95;;
55172;SDS011;41061;52.822;6.860;2023-07-30T10:14:47;7.63;;;1.60;;
55172;SDS011;41061;52.822;6.860;2023-07-30T10:17:13;6.78;;;1.60;;
55172;SDS011;41061;52.822;6.860;2023-07-30T10:19:39;10.18;;;1.50;;
55172;SDS011;41061;52.822;6.860;2023-07-30T10:25:02;5.93;;;1.48;;
55172;SDS011;41061;52.822;6.860;2023-07-30T10:27:41;7.88;;;1.40;;
55172;SDS011;41061;52.822;6.860;2023-07-30T10:30:17;2.80;;;0.85;;
55172;SDS011;41061;52.822;6.860;2023-07-30T10:35:41;8.68;;;1.50;;
55172;SDS011;41061;52.822;6.860;2023-07-30T10:43:28;5.25;;;1.65;;
55172;SDS011;41061;52.822;6.860;2023-07-30T10:45:55;10.50;;;1.88;;
55172;SDS011;41061;52.822;6.860;2023-07-30T10:48:34;8.82;;;1.58;;
55172;SDS011;41061;52.822;6.860;2023-07-30T10:51:01;7.05;;;1.75;;
55172;SDS011;41061;52.822;6.860;2023-07-30T10:53:28;5.03;;;1.83;;
55172;SDS011;41061;52.822;6.860;2023-07-30T10:55:54;6.05;;;1.70;;
55172;SDS011;41061;52.822;6.860;2023-07-30T10:58:24;4.32;;;1.92;;
55172;SDS011;41061;52.822;6.860;2023-07-30T11:00:50;5.93;;;1.60;;
55172;SDS011;41061;52.822;6.860;2023-07-30T11:03:16;5.05;;;1.30;;
55172;SDS011;41061;52.822;6.860;2023-07-30T11:05:46;11.60;;;2.30;;
55172;SDS011;41061;52.822;6.860;2023-07-30T11:08:12;7.32;;;1.95;;
55172;SDS011;41061;52.822;6.860;2023-07-30T11:10:42;7.15;;;1.60;;
55172;SDS011;41061;52.822;6.860;2023-07-30T11:13:08;11.00;;;1.98;;
55172;SDS011;41061;52.822;6.860;2023-07-30T11:15:40;7.57;;;1.73;;
55172;SDS011;41061;52.822;6.860;2023-07-30T11:18:06;6.40;;;1.90;;
55172;SDS011;41061;52.822;6.860;2023-07-30T11:20:33;8.32;;;1.70;;
55172;SDS011;41061;52.822;6.860;2023-07-30T11:22:59;13.27;;;2.38;;
55172;SDS011;41061;52.822;6.860;2023-07-30T11:25:25;9.93;;;2.20;;
55172;SDS011;41061;52.822;6.860;2023-07-30T11:27:51;10.40;;;2.40;;
55172;SDS011;41061;52.822;6.860;2023-07-30T11:30:18;8.75;;;1.90;;
55172;SDS011;41061;52.822;6.860;2023-07-30T11:32:44;8.98;;;1.88;;
55172;SDS011;41061;52.822;6.860;2023-07-30T11:35:11;7.70;;;1.60;;
55172;SDS011;41061;52.822;6.860;2023-07-30T11:37:38;5.93;;;1.77;;
55172;SDS011;41061;52.822;6.860;2023-07-30T11:40:08;4.60;;;1.30;;
55172;SDS011;41061;52.822;6.860;2023-07-30T11:42:35;7.75;;;1.80;;
55172;SDS011;41061;52.822;6.860;2023-07-30T11:45:20;6.25;;;1.50;;
55172;SDS011;41061;52.822;6.860;2023-07-30T11:47:47;6.18;;;1.58;;
55172;SDS011;41061;52.822;6.860;2023-07-30T11:50:14;6.72;;;1.58;;
55172;SDS011;41061;52.822;6.860;2023-07-30T11:52:55;10.00;;;1.90;;
55172;SDS011;41061;52.822;6.860;2023-07-30T11:55:22;6.97;;;1.30;;
55172;SDS011;41061;52.822;6.860;2023-07-30T11:57:51;6.57;;;1.40;;
55172;SDS011;41061;52.822;6.860;2023-07-30T12:00:20;3.42;;;1.25;;
55172;SDS011;41061;52.822;6.860;2023-07-30T12:02:46;4.05;;;1.17;;
55172;SDS011;41061;52.822;6.860;2023-07-30T12:05:13;5.65;;;1.63;;
55172;SDS011;41061;52.822;6.860;2023-07-30T12:07:42;8.18;;;1.83;;
55172;SDS011;41061;52.822;6.860;2023-07-30T12:10:09;5.45;;;1.10;;
55172;SDS011;41061;52.822;6.860;2023-07-30T12:12:35;6.15;;;1.30;;
55172;SDS011;41061;52.822;6.860;2023-07-30T12:15:01;5.78;;;1.35;;
55172;SDS011;41061;52.822;6.860;2023-07-30T12:17:36;8.80;;;1.38;;
55172;SDS011;41061;52.822;6.860;2023-07-30T12:20:02;6.93;;;1.50;;
55172;SDS011;41061;52.822;6.860;2023-07-30T12:22:32;7.10;;;1.50;;
55172;SDS011;41061;52.822;6.860;2023-07-30T12:24:59;6.07;;;1.40;;
55172;SDS011;41061;52.822;6.860;2023-07-30T12:27:25;6.68;;;1.25;;
55172;SDS011;41061;52.822;6.860;2023-07-30T12:29:51;7.63;;;1.38;;
55172;SDS011;41061;52.822;6.860;2023-07-30T12:32:17;5.22;;;1.88;;
55172;SDS011;41061;52.822;6.860;2023-07-30T12:34:43;5.75;;;1.02;;
55172;SDS011;41061;52.822;6.860;2023-07-30T12:37:09;6.28;;;1.20;;
55172;SDS011;41061;52.822;6.860;2023-07-30T12:39:36;7.38;;;1.45;;
55172;SDS011;41061;52.822;6.860;2023-07-30T12:42:02;4.45;;;1.00;;
55172;SDS011;41061;52.822;6.860;2023-07-30T12:44:28;8.38;;;1.40;;
55172;SDS011;41061;52.822;6.860;2023-07-30T12:46:54;6.60;;;1.25;;
55172;SDS011;41061;52.822;6.860;2023-07-30T12:49:20;8.35;;;1.38;;
55172;SDS011;41061;52.822;6.860;2023-07-30T12:51:47;7.57;;;1.30;;
55172;SDS011;41061;52.822;6.860;2023-07-30T12:54:13;12.90;;;1.73;;
55172;SDS011;41061;52.822;6.860;2023-07-30T12:56:39;6.03;;;1.27;;
55172;SDS011;41061;52.822;6.860;2023-07-30T12:59:05;9.50;;;1.25;;
55172;SDS011;41061;52.822;6.860;2023-07-30T13:01:31;4.35;;;1.20;;
55172;SDS011;41061;52.822;6.860;2023-07-30T13:03:57;9.02;;;1.55;;
55172;SDS011;41061;52.822;6.860;2023-07-30T13:06:24;9.13;;;1.23;;
55172;SDS011;41061;52.822;6.860;2023-07-30T13:08:50;4.22;;;1.13;;
55172;SDS011;41061;52.822;6.860;2023-07-30T13:11:17;7.40;;;1.13;;
55172;SDS011;41061;52.822;6.860;2023-07-30T13:13:43;8.57;;;1.15;;
55172;SDS011;41061;52.822;6.860;2023-07-30T13:16:09;3.30;;;1.00;;
55172;SDS011;41061;52.822;6.860;2023-07-30T13:18:35;5.15;;;1.30;;
55172;SDS011;41061;52.822;6.860;2023-07-30T13:21:01;3.85;;;1.05;;
55172;SDS011;41061;52.822;6.860;2023-07-30T13:23:28;6.38;;;1.17;;
55172;SDS011;41061;52.822;6.860;2023-07-30T13:25:55;9.23;;;1.42;;
55172;SDS011;41061;52.822;6.860;2023-07-30T13:28:21;4.38;;;0.77;;
55172;SDS011;41061;52.822;6.860;2023-07-30T13:30:47;4.28;;;1.08;;
55172;SDS011;41061;52.822;6.860;2023-07-30T13:33:15;4.18;;;0.95;;
55172;SDS011;41061;52.822;6.860;2023-07-30T13:35:41;4.03;;;1.00;;
55172;SDS011;41061;52.822;6.860;2023-07-30T13:38:08;6.25;;;1.20;;
55172;SDS011;41061;52.822;6.860;2023-07-30T13:40:34;7.72;;;1.10;;
55172;SDS011;41061;52.822;6.860;2023-07-30T13:43:00;9.20;;;1.17;;
55172;SDS011;41061;52.822;6.860;2023-07-30T13:45:26;6.97;;;1.17;;
55172;SDS011;41061;52.822;6.860;2023-07-30T13:47:53;5.47;;;1.35;;
55172;SDS011;41061;52.822;6.860;2023-07-30T13:50:19;5.38;;;1.67;;
55172;SDS011;41061;52.822;6.860;2023-07-30T13:52:45;3.97;;;1.15;;
55172;SDS011;41061;52.822;6.860;2023-07-30T13:55:11;6.20;;;1.35;;
55172;SDS011;41061;52.822;6.860;2023-07-30T13:57:37;6.30;;;1.50;;
55172;SDS011;41061;52.822;6.860;2023-07-30T14:00:04;4.95;;;0.98;;
55172;SDS011;41061;52.822;6.860;2023-07-30T14:02:31;9.00;;;1.40;;
55172;SDS011;41061;52.822;6.860;2023-07-30T14:04:57;6.15;;;1.73;;
55172;SDS011;41061;52.822;6.860;2023-07-30T14:07:23;6.38;;;1.77;;
55172;SDS011;41061;52.822;6.860;2023-07-30T14:09:49;5.00;;;1.35;;
55172;SDS011;41061;52.822;6.860;2023-07-30T14:12:15;5.88;;;1.30;;
55172;SDS011;41061;52.822;6.860;2023-07-30T14:14:41;5.10;;;1.20;;
55172;SDS011;41061;52.822;6.860;2023-07-30T14:17:07;10.70;;;1.38;;
55172;SDS011;41061;52.822;6.860;2023-07-30T14:19:33;7.63;;;1.20;;
55172;SDS011;41061;52.822;6.860;2023-07-30T14:22:00;5.00;;;0.88;;
55172;SDS011;41061;52.822;6.860;2023-07-30T14:24:26;8.55;;;1.23;;
55172;SDS011;41061;52.822;6.860;2023-07-30T14:26:52;5.97;;;1.38;;
55172;SDS011;41061;52.822;6.860;2023-07-30T14:29:18;4.85;;;1.05;;
55172;SDS011;41061;52.822;6.860;2023-07-30T14:31:44;7.38;;;1.10;;
55172;SDS011;41061;52.822;6.860;2023-07-30T14:34:10;4.55;;;0.90;;
55172;SDS011;41061;52.822;6.860;2023-07-30T14:36:37;4.25;;;1.10;;
55172;SDS011;41061;52.822;6.860;2023-07-30T14:39:03;3.28;;;1.10;;
55172;SDS011;41061;52.822;6.860;2023-07-30T14:41:29;4.80;;;0.73;;
55172;SDS011;41061;52.822;6.860;2023-07-30T14:43:55;2.88;;;0.57;;
55172;SDS011;41061;52.822;6.860;2023-07-30T14:46:21;3.03;;;0.73;;
55172;SDS011;41061;52.822;6.860;2023-07-30T14:48:47;3.08;;;0.98;;